createdAt,value
2022-12-03T00:02:21.651Z,85.00
2022-12-03T00:04:48.656Z,79.03
2022-12-03T00:07:15.429Z,82.93
2022-12-03T00:09:42.733Z,79.68
2022-12-03T00:12:09.544Z,78.55
2022-12-03T00:14:41.276Z,75.82
2022-12-03T00:17:11.183Z,81.90
2022-12-03T00:19:38.006Z,76.03
2022-12-03T00:22:04.817Z,79.00
2022-12-03T00:24:31.844Z,78.38
2022-12-03T00:26:58.782Z,82.38
2022-12-03T00:29:25.786Z,81.57
2022-12-03T00:31:52.576Z,81.30
2022-12-03T00:34:19.750Z,85.32
2022-12-03T00:36:46.565Z,79.03
2022-12-03T00:39:13.347Z,82.20
2022-12-03T00:41:40.170Z,78.28
2022-12-03T00:44:06.985Z,84.75
2022-12-03T00:46:33.823Z,84.40
2022-12-03T00:49:00.722Z,87.45
2022-12-03T00:51:27.512Z,81.70
2022-12-03T00:53:54.347Z,77.25
2022-12-03T00:56:21.229Z,83.57
2022-12-03T00:58:50.033Z,82.57
2022-12-03T01:01:16.944Z,81.68
2022-12-03T01:03:43.775Z,83.90
2022-12-03T01:06:10.668Z,80.22
2022-12-03T01:08:37.417Z,81.30
2022-12-03T01:11:24.363Z,81.28
2022-12-03T01:13:51.176Z,68.72
2022-12-03T01:16:18.042Z,76.88
2022-12-03T01:18:46.183Z,78.60
2022-12-03T01:23:39.831Z,78.30
2022-12-03T01:26:06.629Z,74.40
2022-12-03T01:28:33.496Z,79.68
2022-12-03T01:31:18.795Z,78.07
2022-12-03T01:33:45.629Z,76.55
2022-12-03T01:36:12.477Z,70.43
2022-12-03T01:38:39.298Z,73.97
2022-12-03T01:41:11.514Z,71.80
2022-12-03T01:43:38.846Z,76.75
2022-12-03T01:46:05.897Z,70.43
2022-12-03T01:48:36.117Z,79.83
2022-12-03T01:51:03.188Z,76.50
2022-12-03T01:53:32.607Z,77.03
2022-12-03T01:55:59.691Z,74.80
2022-12-03T01:58:29.815Z,74.23
2022-12-03T02:01:01.669Z,71.80
2022-12-03T02:03:28.827Z,72.45
2022-12-03T02:05:59.396Z,77.97
2022-12-03T02:08:28.456Z,71.15
2022-12-03T02:10:56.505Z,74.40
2022-12-03T02:15:50.332Z,72.63
2022-12-03T02:18:17.894Z,72.32
2022-12-03T02:20:56.182Z,73.75
2022-12-03T02:23:31.353Z,73.75
2022-12-03T02:25:58.179Z,75.15
2022-12-03T02:28:25.129Z,74.88
2022-12-03T02:30:54.125Z,77.53
2022-12-03T02:33:20.990Z,77.75
2022-12-03T02:35:48.435Z,71.55
2022-12-03T02:38:22.474Z,57.97
2022-12-03T02:40:56.340Z,66.90
2022-12-03T02:43:24.146Z,74.80
2022-12-03T02:45:54.147Z,70.97
2022-12-03T02:48:36.694Z,77.20
2022-12-03T02:51:07.863Z,70.13
2022-12-03T02:53:42.357Z,71.57
2022-12-03T02:56:12.183Z,68.28
2022-12-03T02:58:40.719Z,67.90
2022-12-03T03:01:08.305Z,68.93
2022-12-03T03:03:37.392Z,64.55
2022-12-03T03:06:07.576Z,69.05
2022-12-03T03:08:36.554Z,73.18
2022-12-03T03:11:03.783Z,72.78
2022-12-03T03:13:33.185Z,74.65
2022-12-03T03:16:01.641Z,71.97
2022-12-03T03:18:28.875Z,68.75
2022-12-03T03:20:55.728Z,73.70
2022-12-03T03:23:24.146Z,70.00
2022-12-03T03:26:04.873Z,76.80
2022-12-03T03:28:34.673Z,74.32
2022-12-03T03:31:04.149Z,71.00
2022-12-03T03:33:35.055Z,74.43
2022-12-03T03:36:02.716Z,71.82
2022-12-03T03:38:33.212Z,70.20
2022-12-03T03:41:01.888Z,71.55
2022-12-03T03:43:30.644Z,74.05
2022-12-03T03:45:57.563Z,72.63
2022-12-03T03:48:24.533Z,72.55
2022-12-03T03:50:51.934Z,72.90
2022-12-03T03:53:19.840Z,73.45
2022-12-03T03:55:46.918Z,67.00
2022-12-03T03:58:16.181Z,81.63
2022-12-03T04:00:45.459Z,76.75
2022-12-03T04:03:13.244Z,75.72
2022-12-03T04:05:40.363Z,74.55
2022-12-03T04:08:07.264Z,75.23
2022-12-03T04:10:52.857Z,70.55
2022-12-03T04:13:19.738Z,75.30
2022-12-03T04:15:46.521Z,74.30
2022-12-03T04:18:32.115Z,77.10
2022-12-03T04:21:18.856Z,71.80
2022-12-03T04:23:45.811Z,69.27
2022-12-03T04:26:31.290Z,75.30
2022-12-03T04:28:58.137Z,72.07
2022-12-03T04:31:43.671Z,72.13
2022-12-03T04:34:29.896Z,75.15
2022-12-03T04:36:56.892Z,74.65
2022-12-03T04:39:23.834Z,76.22
2022-12-03T04:41:50.654Z,70.72
2022-12-03T04:44:36.440Z,71.97
2022-12-03T04:47:15.009Z,69.03
2022-12-03T04:49:44.555Z,72.07
2022-12-03T04:52:12.862Z,71.85
2022-12-03T04:54:40.530Z,74.32
2022-12-03T04:57:08.359Z,76.22
2022-12-03T04:59:36.529Z,75.05
2022-12-03T05:02:04.153Z,73.03
2022-12-03T05:04:32.846Z,72.07
2022-12-03T05:06:59.855Z,70.80
2022-12-03T05:09:26.735Z,72.38
2022-12-03T05:11:53.719Z,72.22
2022-12-03T05:14:21.664Z,72.68
2022-12-03T05:19:15.533Z,65.95
2022-12-03T05:21:42.337Z,67.53
2022-12-03T05:24:09.234Z,68.85
2022-12-03T05:26:36.145Z,71.85
2022-12-03T05:29:03.021Z,68.88
2022-12-03T05:31:29.830Z,73.93
2022-12-03T05:33:56.750Z,71.47
2022-12-03T05:36:25.277Z,64.97
2022-12-03T05:38:52.315Z,67.57
2022-12-03T05:41:37.531Z,67.97
2022-12-03T05:44:04.401Z,71.72
2022-12-03T05:46:32.492Z,71.22
2022-12-03T05:48:59.598Z,71.45
2022-12-03T05:51:26.361Z,53.22
2022-12-03T05:53:53.224Z,68.28
2022-12-03T05:56:20.058Z,70.80
2022-12-03T05:58:46.866Z,65.32
2022-12-03T06:01:13.643Z,69.25
2022-12-03T06:03:40.635Z,71.68
2022-12-03T06:06:07.543Z,68.10
2022-12-03T06:08:34.335Z,71.55
2022-12-03T06:11:01.167Z,72.55
2022-12-03T06:13:27.978Z,74.05
2022-12-03T06:15:54.802Z,72.13
2022-12-03T06:18:21.656Z,72.25
2022-12-03T06:20:48.388Z,72.40
2022-12-03T06:23:15.320Z,74.03
2022-12-03T06:25:42.119Z,84.65
2022-12-03T06:28:09.746Z,77.95
2022-12-03T06:30:36.671Z,77.63
2022-12-03T06:33:03.526Z,75.57
2022-12-03T06:35:30.350Z,78.65
2022-12-03T06:37:57.169Z,81.60
2022-12-03T06:40:25.017Z,84.80
2022-12-03T06:42:52.123Z,80.72
2022-12-03T06:45:19.055Z,81.33
2022-12-03T06:47:45.810Z,80.57
2022-12-03T06:50:13.662Z,75.38
2022-12-03T06:52:40.621Z,81.82
2022-12-03T06:55:08.078Z,88.45
2022-12-03T06:57:34.837Z,82.90
2022-12-03T07:00:03.443Z,81.95
2022-12-03T07:02:30.612Z,74.63
2022-12-03T07:04:57.925Z,61.55
2022-12-03T07:07:24.950Z,85.53
2022-12-03T07:09:51.738Z,79.07
2022-12-03T07:12:19.070Z,81.95
2022-12-03T07:14:45.885Z,85.10
2022-12-03T07:17:12.717Z,80.68
2022-12-03T07:19:39.588Z,85.75
2022-12-03T07:22:06.408Z,84.75
2022-12-03T07:24:33.250Z,89.10
2022-12-03T07:27:00.084Z,86.13
2022-12-03T07:29:26.834Z,87.07
2022-12-03T07:31:53.937Z,83.60
2022-12-03T07:34:21.636Z,84.87
2022-12-03T07:36:48.449Z,88.45
2022-12-03T07:39:15.322Z,90.85
2022-12-03T07:41:42.280Z,89.72
2022-12-03T07:44:14.067Z,86.32
2022-12-03T07:46:42.155Z,95.05
2022-12-03T07:49:09.150Z,86.80
2022-12-03T07:51:35.956Z,87.80
2022-12-03T07:54:02.750Z,89.75
2022-12-03T07:56:29.541Z,83.85
2022-12-03T07:58:56.630Z,89.97
2022-12-03T08:01:23.557Z,83.70
2022-12-03T08:03:50.419Z,95.15
2022-12-03T08:06:17.358Z,89.20
2022-12-03T08:08:44.107Z,86.18
2022-12-03T08:11:14.848Z,88.85
2022-12-03T08:13:41.859Z,86.85
2022-12-03T08:16:16.871Z,89.00
2022-12-03T08:18:44.257Z,90.60
2022-12-03T08:21:16.126Z,85.97
2022-12-03T08:23:43.143Z,85.25
2022-12-03T08:26:24.256Z,88.40
2022-12-03T08:28:52.492Z,83.80
2022-12-03T08:31:32.299Z,85.65
2022-12-03T08:34:18.067Z,86.88
2022-12-03T08:36:45.224Z,89.88
2022-12-03T08:39:33.664Z,83.63
2022-12-03T08:42:42.701Z,78.68
2022-12-03T08:45:18.497Z,85.65
2022-12-03T08:47:45.911Z,86.75
2022-12-03T08:50:33.648Z,87.75
2022-12-03T08:55:47.858Z,82.28
2022-12-03T08:58:38.465Z,80.88
2022-12-03T09:01:05.386Z,79.05
2022-12-03T09:03:36.663Z,76.80
2022-12-03T09:06:03.636Z,78.22
2022-12-03T09:08:31.211Z,84.05
2022-12-03T09:10:58.353Z,88.93
2022-12-03T09:13:25.255Z,64.93
2022-12-03T09:15:52.094Z,80.95
2022-12-03T09:18:19.143Z,80.32
2022-12-03T09:20:45.915Z,80.37
2022-12-03T09:23:12.721Z,80.38
2022-12-03T09:25:39.562Z,74.18
2022-12-03T09:28:06.492Z,76.18
2022-12-03T09:30:33.294Z,75.00
2022-12-03T09:33:00.257Z,81.72
2022-12-03T09:35:27.651Z,80.05
2022-12-03T09:37:55.370Z,78.55
2022-12-03T09:40:23.162Z,78.55
2022-12-03T09:42:52.519Z,81.43
2022-12-03T09:45:21.846Z,78.18
2022-12-03T09:47:50.429Z,78.18
2022-12-03T09:52:49.929Z,79.25
2022-12-03T09:55:20.861Z,77.57
2022-12-03T09:57:48.013Z,83.47
2022-12-03T10:00:18.703Z,80.83
2022-12-03T10:02:47.023Z,82.82
2022-12-03T10:05:14.476Z,77.05
2022-12-03T10:07:42.018Z,74.13
2022-12-03T10:10:20.025Z,74.40
2022-12-03T10:12:47.793Z,70.63
2022-12-03T10:15:17.401Z,77.13
2022-12-03T10:17:45.887Z,79.55
2022-12-03T10:20:15.672Z,76.35
2022-12-03T10:22:42.665Z,75.88
2022-12-03T10:25:15.450Z,80.82
2022-12-03T10:27:42.734Z,78.03
2022-12-03T10:30:19.743Z,75.40
2022-12-03T10:32:49.595Z,78.10
2022-12-03T10:35:26.275Z,74.85
2022-12-03T10:38:00.572Z,81.68
2022-12-03T10:40:35.815Z,80.85
2022-12-03T10:43:17.755Z,74.75
2022-12-03T10:45:49.499Z,77.88
2022-12-03T10:48:27.325Z,80.53
2022-12-03T10:51:00.755Z,76.25
2022-12-03T10:53:33.036Z,79.63
2022-12-03T10:56:04.085Z,77.40
2022-12-03T10:58:35.488Z,75.82
2022-12-03T11:01:06.937Z,74.85
2022-12-03T11:03:35.811Z,77.53
2022-12-03T11:06:03.897Z,78.20
2022-12-03T11:11:13.019Z,72.97
2022-12-03T11:13:39.770Z,73.22
2022-12-03T11:16:08.275Z,73.63
2022-12-03T11:18:38.058Z,74.88
2022-12-03T11:21:07.993Z,81.55
2022-12-03T11:23:47.138Z,74.75
2022-12-03T11:26:36.935Z,73.80
2022-12-03T11:29:13.045Z,68.35
2022-12-03T11:31:42.547Z,70.85
2022-12-03T11:34:31.399Z,78.53
2022-12-03T11:37:12.274Z,78.28
2022-12-03T11:39:47.781Z,75.38
2022-12-03T11:42:26.515Z,74.80
2022-12-03T11:45:05.645Z,73.28
2022-12-03T11:47:44.365Z,73.00
2022-12-03T11:50:28.117Z,77.57
2022-12-03T11:53:22.508Z,77.43
2022-12-03T11:56:18.347Z,70.40
2022-12-03T11:58:46.665Z,73.40
2022-12-03T12:01:15.146Z,71.88
2022-12-03T12:03:43.761Z,77.50
2022-12-03T12:06:18.883Z,73.25
2022-12-03T12:08:51.707Z,72.78
2022-12-03T12:11:30.162Z,75.97
2022-12-03T12:14:12.653Z,76.43
2022-12-03T12:16:49.943Z,74.35
2022-12-03T12:19:33.826Z,80.95
2022-12-03T12:22:22.370Z,73.65
2022-12-03T12:24:57.395Z,72.55
2022-12-03T12:27:45.164Z,82.30
2022-12-03T12:30:17.815Z,77.28
2022-12-03T12:32:53.191Z,81.43
2022-12-03T12:35:24.400Z,77.28
2022-12-03T12:38:07.070Z,75.15
2022-12-03T12:40:42.753Z,73.35
2022-12-03T12:43:24.053Z,73.22
2022-12-03T12:45:54.983Z,71.05
2022-12-03T12:48:26.937Z,79.50
2022-12-03T12:51:00.149Z,78.55
2022-12-03T12:53:33.062Z,72.65
2022-12-03T12:56:31.799Z,81.35
2022-12-03T12:59:30.731Z,74.30
2022-12-03T13:01:57.935Z,70.28
2022-12-03T13:04:26.123Z,72.97
2022-12-03T13:06:53.983Z,77.47
2022-12-03T13:09:24.049Z,80.35
2022-12-03T13:11:54.144Z,73.20
2022-12-03T13:14:29.935Z,71.13
2022-12-03T13:16:58.934Z,77.28
2022-12-03T13:19:43.497Z,73.20
2022-12-03T13:22:20.603Z,71.32
2022-12-03T13:24:52.976Z,71.25
2022-12-03T13:27:19.730Z,70.85
2022-12-03T13:29:50.494Z,72.95
2022-12-03T13:32:20.441Z,68.00
2022-12-03T13:34:48.036Z,74.30
2022-12-03T13:37:20.145Z,70.03
2022-12-03T13:39:50.024Z,77.40
2022-12-03T13:42:39.999Z,70.63
2022-12-03T13:45:38.316Z,72.95
2022-12-03T13:48:25.981Z,74.10
2022-12-03T13:50:53.785Z,74.43
2022-12-03T13:53:24.812Z,72.95
2022-12-03T13:56:17.767Z,68.13
2022-12-03T13:58:44.529Z,67.30
2022-12-03T14:01:11.457Z,68.57
2022-12-03T14:03:38.561Z,72.55
2022-12-03T14:06:05.549Z,64.72
2022-12-03T14:08:32.410Z,66.90
2022-12-03T14:11:00.893Z,71.05
2022-12-03T14:13:28.024Z,67.97
2022-12-03T14:15:55.294Z,67.32
2022-12-03T14:18:22.239Z,72.50
2022-12-03T14:20:49.184Z,71.40
2022-12-03T14:23:16.257Z,73.68
2022-12-03T14:25:44.304Z,69.40
2022-12-03T14:30:38.173Z,63.73
2022-12-03T14:33:05.552Z,62.22
2022-12-03T14:35:32.479Z,64.22
2022-12-03T14:37:59.328Z,68.15
2022-12-03T14:40:27.186Z,68.90
2022-12-03T14:42:54.149Z,75.80
2022-12-03T14:45:20.972Z,70.65
2022-12-03T14:47:47.819Z,68.97
2022-12-03T14:50:14.730Z,69.18
2022-12-03T14:52:41.763Z,65.68
2022-12-03T14:55:08.988Z,66.57
2022-12-03T14:57:37.027Z,66.38
2022-12-03T15:00:05.770Z,68.25
2022-12-03T15:02:32.952Z,68.78
2022-12-03T15:05:02.481Z,62.63
2022-12-03T15:07:29.409Z,64.88
2022-12-03T15:09:56.729Z,66.97
2022-12-03T15:12:23.816Z,65.82
2022-12-03T15:14:50.656Z,71.90
2022-12-03T15:17:23.269Z,68.63
2022-12-03T15:19:55.083Z,69.32
2022-12-03T15:22:22.147Z,73.20
2022-12-03T15:24:49.018Z,69.75
2022-12-03T15:27:15.842Z,72.20
2022-12-03T15:29:42.744Z,81.18
2022-12-03T15:32:09.564Z,76.90
2022-12-03T15:34:36.417Z,77.05
2022-12-03T15:37:03.198Z,78.18
2022-12-03T15:39:30.020Z,71.60
2022-12-03T15:41:56.774Z,79.18
2022-12-03T15:44:23.534Z,74.22
2022-12-03T15:46:50.545Z,75.07
2022-12-03T15:49:17.272Z,72.55
2022-12-03T15:51:44.132Z,75.65
2022-12-03T15:54:12.167Z,77.95
2022-12-03T15:56:39.024Z,79.97
2022-12-03T15:59:05.917Z,83.78
2022-12-03T16:01:32.835Z,83.53
2022-12-03T16:03:59.705Z,82.07
2022-12-03T16:06:26.517Z,78.28
2022-12-03T16:08:53.486Z,79.45
2022-12-03T16:11:20.245Z,80.50
2022-12-03T16:13:47.076Z,87.15
2022-12-03T16:16:14.173Z,76.13
2022-12-03T16:18:42.593Z,77.35
2022-12-03T16:21:09.347Z,82.72
2022-12-03T16:23:36.550Z,81.55
2022-12-03T16:26:03.431Z,81.93
2022-12-03T16:28:30.293Z,84.95
2022-12-03T16:30:57.110Z,83.07
2022-12-03T16:33:27.479Z,80.47
2022-12-03T16:35:54.947Z,78.18
2022-12-03T16:38:21.729Z,85.38
2022-12-03T16:40:48.684Z,86.82
2022-12-03T16:43:15.943Z,83.80
2022-12-03T16:45:42.669Z,89.35
2022-12-03T16:48:09.526Z,86.65
2022-12-03T16:50:37.596Z,82.38
2022-12-03T16:55:31.169Z,82.55
2022-12-03T16:57:57.941Z,78.50
2022-12-03T17:00:25.891Z,88.00
2022-12-03T17:02:53.077Z,97.13
2022-12-03T17:05:19.966Z,67.70
2022-12-03T17:07:47.035Z,87.80
2022-12-03T17:10:13.946Z,87.40
2022-12-03T17:13:08.404Z,85.68
2022-12-03T17:15:27.646Z,86.50
2022-12-03T17:17:54.547Z,90.90
2022-12-03T17:20:21.405Z,87.07
2022-12-03T17:22:48.465Z,83.30
2022-12-03T17:25:15.729Z,82.83
2022-12-03T17:27:45.325Z,86.10
2022-12-03T17:30:12.797Z,80.80
2022-12-03T17:32:39.864Z,90.40
2022-12-03T17:35:07.705Z,68.37
2022-12-03T17:37:34.633Z,89.00
2022-12-03T17:40:01.598Z,83.55
2022-12-03T17:42:28.645Z,85.10
2022-12-03T17:44:55.479Z,84.72
2022-12-03T17:47:24.381Z,85.88
2022-12-03T17:49:51.408Z,81.57
2022-12-03T17:52:18.559Z,77.07
2022-12-03T17:55:09.304Z,88.82
2022-12-03T17:57:32.221Z,89.90
2022-12-03T17:59:59.210Z,90.05
2022-12-03T18:02:26.109Z,83.53
2022-12-03T18:04:53.164Z,89.70
2022-12-03T18:07:20.110Z,88.37
2022-12-03T18:09:46.961Z,83.85
2022-12-03T18:12:13.870Z,84.45
2022-12-03T18:14:40.686Z,81.57
2022-12-03T18:17:07.475Z,84.28
2022-12-03T18:19:34.724Z,80.75
2022-12-03T18:22:01.616Z,80.50
2022-12-03T18:24:28.435Z,84.95
2022-12-03T18:26:58.221Z,83.18
2022-12-03T18:29:25.094Z,86.90
2022-12-03T18:31:52.232Z,85.55
2022-12-03T18:34:19.083Z,79.70
2022-12-03T18:36:46.502Z,82.68
2022-12-03T18:39:27.444Z,80.07
2022-12-03T18:41:54.641Z,83.05
2022-12-03T18:44:21.774Z,57.20
2022-12-03T18:46:55.935Z,76.77
2022-12-03T18:49:23.268Z,75.75
2022-12-03T18:51:54.568Z,82.28
2022-12-03T18:54:25.747Z,80.53
2022-12-03T18:56:52.494Z,82.13
2022-12-03T18:59:19.652Z,83.43
2022-12-03T19:01:47.662Z,79.13
2022-12-03T19:04:17.813Z,89.20
2022-12-03T19:06:44.815Z,85.63
2022-12-03T19:09:11.646Z,76.68
2022-12-03T19:11:38.547Z,82.25
2022-12-03T19:14:05.622Z,76.65
2022-12-03T19:16:32.569Z,81.28
2022-12-03T19:18:59.592Z,77.57
2022-12-03T19:21:30.693Z,77.07
2022-12-03T19:24:24.338Z,87.85
2022-12-03T19:29:14.926Z,98.18
2022-12-03T19:31:44.758Z,82.97
2022-12-03T19:34:11.568Z,84.05
2022-12-03T19:36:38.403Z,79.20
2022-12-03T19:39:05.264Z,79.13
2022-12-03T19:41:32.496Z,87.40
2022-12-03T19:43:59.745Z,64.80
2022-12-03T19:46:30.625Z,83.68
2022-12-03T19:48:57.859Z,74.90
2022-12-03T19:51:40.563Z,84.97
2022-12-03T19:54:10.385Z,79.30
2022-12-03T19:56:37.390Z,81.32
2022-12-03T19:59:04.985Z,77.38
2022-12-03T20:01:34.472Z,83.78
2022-12-03T20:04:03.764Z,80.90
2022-12-03T20:06:32.789Z,83.95
2022-12-03T20:09:04.036Z,85.60
2022-12-03T20:11:33.723Z,87.32
2022-12-03T20:14:04.386Z,88.35
2022-12-03T20:16:31.381Z,81.38
2022-12-03T20:19:00.742Z,82.45
2022-12-03T20:21:30.071Z,83.28
2022-12-03T20:23:56.867Z,93.30
2022-12-03T20:26:23.973Z,87.50
2022-12-03T20:28:54.250Z,92.25
2022-12-03T20:31:23.383Z,88.78
2022-12-03T20:33:52.695Z,86.88
2022-12-03T20:36:22.567Z,86.25
2022-12-03T20:38:53.904Z,92.60
2022-12-03T20:41:21.327Z,86.65
2022-12-03T20:43:48.835Z,88.43
2022-12-03T20:46:21.981Z,97.35
2022-12-03T20:48:54.054Z,92.75
2022-12-03T20:53:49.117Z,87.50
2022-12-03T20:56:24.931Z,95.22
2022-12-03T20:58:53.123Z,94.22
2022-12-03T21:01:23.322Z,87.13
2022-12-03T21:03:51.773Z,91.32
2022-12-03T21:06:20.101Z,93.18
2022-12-03T21:08:47.237Z,90.68
2022-12-03T21:11:18.307Z,93.82
2022-12-03T21:13:46.797Z,88.57
2022-12-03T21:16:29.618Z,83.80
2022-12-03T21:19:09.821Z,84.68
2022-12-03T21:21:36.869Z,87.50
2022-12-03T21:24:04.070Z,99.32
2022-12-03T21:26:30.995Z,88.93
2022-12-03T21:29:02.448Z,96.28
2022-12-03T21:31:34.073Z,85.68
2022-12-03T21:34:01.493Z,97.63
2022-12-03T21:36:29.013Z,90.53
2022-12-03T21:38:56.974Z,90.03
2022-12-03T21:41:23.727Z,93.43
2022-12-03T21:43:50.618Z,90.32
2022-12-03T21:47:08.317Z,102.05
2022-12-03T21:49:04.422Z,72.10
2022-12-03T21:51:31.390Z,95.22
2022-12-03T21:53:58.574Z,90.50
2022-12-03T21:56:25.434Z,85.90
2022-12-03T21:58:52.315Z,93.97
2022-12-03T22:01:22.466Z,94.18
2022-12-03T22:03:49.846Z,94.97
2022-12-03T22:06:17.267Z,93.63
2022-12-03T22:08:44.302Z,74.78
2022-12-03T22:11:20.039Z,98.63
2022-12-03T22:13:47.074Z,96.00
2022-12-03T22:16:16.893Z,98.93
2022-12-03T22:18:43.977Z,96.43
2022-12-03T22:21:13.571Z,97.32
2022-12-03T22:23:40.773Z,98.50
2022-12-03T22:26:11.831Z,94.22
2022-12-03T22:28:42.093Z,97.45
2022-12-03T22:31:09.571Z,90.57
2022-12-03T22:33:39.870Z,95.60
2022-12-03T22:36:14.653Z,92.88
2022-12-03T22:38:45.507Z,97.18
2022-12-03T22:41:13.695Z,97.00
2022-12-03T22:46:10.409Z,98.93
2022-12-03T22:48:37.397Z,95.13
2022-12-03T22:51:09.920Z,89.43
2022-12-03T22:53:36.680Z,93.50
2022-12-03T22:56:03.518Z,93.68
2022-12-03T22:58:31.593Z,96.18
2022-12-03T23:01:02.609Z,97.53
2022-12-03T23:03:30.471Z,96.20
2022-12-03T23:05:57.460Z,75.10
2022-12-03T23:08:24.307Z,98.68
2022-12-03T23:10:52.820Z,96.80
2022-12-03T23:13:20.083Z,104.70
2022-12-03T23:15:48.984Z,100.45
2022-12-03T23:18:16.427Z,95.85
2022-12-03T23:20:48.752Z,101.63
2022-12-03T23:23:16.224Z,102.95
2022-12-03T23:25:43.058Z,104.60
2022-12-03T23:28:10.534Z,105.15
2022-12-03T23:30:40.101Z,98.68
2022-12-03T23:33:07.194Z,98.20
2022-12-03T23:35:34.352Z,94.18
2022-12-03T23:38:01.208Z,100.70
2022-12-03T23:40:28.051Z,106.32
2022-12-03T23:42:55.021Z,99.35
2022-12-03T23:45:21.941Z,97.43
2022-12-03T23:47:51.279Z,102.30
2022-12-03T23:50:20.462Z,105.22
2022-12-03T23:52:47.329Z,97.43
2022-12-03T23:55:14.165Z,105.53
2022-12-03T23:57:41.010Z,100.57
